Time;durP1;ratioP1;P1;durP2;ratioP2;P2;SDS_P1;SDS_P2;PMS_P1;PMS_P2;Temp;Humidity;BMP_temperature;BMP_pressure;BME280_temperature;BME280_humidity;BME280_pressure;Samples;Min_cycle;Max_cycle;Signal;HPM_P1;HPM_P2
2021/09/19 00:01:11;;;;;;;15.23;11.70;;;;;;;17.36;79.48;96098.41;4976668;28;20433;-53
2021/09/19 00:03:37;;;;;;;13.23;11.90;;;;;;;17.35;79.52;96102.13;4976791;28;20285;-53
2021/09/19 00:06:03;;;;;;;12.87;11.77;;;;;;;17.32;79.50;96100.81;4976611;28;20684;-59
2021/09/19 00:08:28;;;;;;;13.57;12.20;;;;;;;17.33;79.79;96097.09;4977158;28;20200;-52
2021/09/19 00:10:55;;;;;;;12.30;11.20;;;;;;;17.32;79.67;96097.34;4977029;28;20772;-59
2021/09/19 00:13:20;;;;;;;11.87;10.67;;;;;;;17.31;79.76;96093.94;4976337;28;20190;-53
2021/09/19 00:15:46;;;;;;;13.87;12.40;;;;;;;17.29;80.08;96093.41;4976512;28;20450;-59
2021/09/19 00:18:12;;;;;;;12.40;11.20;;;;;;;17.32;79.87;96092.03;4976896;28;20201;-52
2021/09/19 00:20:39;;;;;;;12.63;11.23;;;;;;;17.32;79.76;96095.50;4976876;28;20556;-59
2021/09/19 00:23:05;;;;;;;15.40;11.30;;;;;;;17.33;80.02;96089.13;4976404;28;20186;-53
2021/09/19 00:25:31;;;;;;;12.50;11.30;;;;;;;17.34;79.95;96085.41;4976467;28;20441;-59
2021/09/19 00:27:56;;;;;;;12.70;11.40;;;;;;;17.37;80.06;96087.50;4976546;28;20437;-58
2021/09/19 00:30:21;;;;;;;13.47;10.80;;;;;;;17.36;79.86;96085.94;4976155;28;20193;-53
2021/09/19 00:32:47;;;;;;;22.37;11.47;;;;;;;17.39;79.81;96079.28;4976059;28;20265;-52
2021/09/19 00:35:12;;;;;;;11.53;10.40;;;;;;;17.36;79.65;96085.94;4976576;28;20260;-53
2021/09/19 00:37:38;;;;;;;11.83;10.73;;;;;;;17.37;79.53;96073.44;4976107;28;20202;-59
2021/09/19 00:40:04;;;;;;;12.13;10.97;;;;;;;17.35;79.87;96072.91;4976470;28;20181;-59
2021/09/19 00:42:30;;;;;;;10.20;9.30;;;;;;;17.35;79.73;96073.72;4976329;28;20182;-59
2021/09/19 00:45:08;;;;;;;10.17;9.37;;;;;;;17.31;79.67;96074.53;4975760;28;20453;-53
2021/09/19 00:47:34;;;;;;;11.23;10.10;;;;;;;17.36;79.46;96069.19;4976299;28;20167;-59
2021/09/19 00:49:59;;;;;;;10.40;9.57;;;;;;;17.33;79.51;96065.22;4976185;28;20410;-59
2021/09/19 00:52:27;;;;;;;10.37;9.43;;;;;;;17.34;79.38;96071.31;4976141;28;20416;-58
2021/09/19 00:54:56;;;;;;;11.03;9.97;;;;;;;17.36;79.05;96063.88;4975675;28;20220;-59
2021/09/19 00:57:25;;;;;;;12.13;10.20;;;;;;;17.36;78.97;96070.00;4975812;28;20481;-53
2021/09/19 00:59:50;;;;;;;10.90;9.00;;;;;;;17.35;79.14;96064.97;4975836;28;20429;-53
2021/09/19 01:02:17;;;;;;;11.30;9.63;;;;;;;17.32;78.78;96057.50;4976047;28;20418;-58
2021/09/19 01:04:42;;;;;;;10.00;9.17;;;;;;;17.30;79.10;96063.09;4975494;28;20673;-53
2021/09/19 01:07:08;;;;;;;9.70;8.87;;;;;;;17.29;79.17;96060.72;4975830;28;20424;-59
2021/09/19 01:09:38;;;;;;;10.13;9.23;;;;;;;17.28;79.07;96061.81;4975834;28;20178;-58
2021/09/19 01:12:04;;;;;;;10.30;9.30;;;;;;;17.32;78.54;96057.50;4975664;28;20529;-59
2021/09/19 01:14:31;;;;;;;12.37;10.23;;;;;;;17.29;78.51;96058.06;4974976;28;20967;-52
2021/09/19 01:16:57;;;;;;;10.40;9.40;;;;;;;17.27;78.54;96053.03;4974831;28;20468;-53
2021/09/19 01:19:24;;;;;;;11.27;10.23;;;;;;;17.24;78.52;96053.59;4975481;28;20422;-59
2021/09/19 01:21:53;;;;;;;10.10;9.20;;;;;;;17.22;78.32;96046.97;4975699;28;20265;-59
2021/09/19 01:24:25;;;;;;;11.27;9.73;;;;;;;17.19;78.39;96044.88;4975094;28;20770;-59
2021/09/19 01:26:51;;;;;;;11.00;10.00;;;;;;;17.18;78.14;96041.41;4975525;28;20432;-53
2021/09/19 01:29:16;;;;;;;11.63;10.43;;;;;;;17.13;78.49;96043.31;4975199;28;20810;-59
2021/09/19 01:31:41;;;;;;;10.40;9.40;;;;;;;17.13;78.46;96043.31;4975528;28;20539;-52
2021/09/19 01:34:07;;;;;;;10.87;9.70;;;;;;;17.11;78.39;96040.94;4974871;28;20294;-59
2021/09/19 01:36:35;;;;;;;10.77;9.77;;;;;;;17.09;78.27;96043.06;4975063;28;20217;-53
2021/09/19 01:39:00;;;;;;;13.97;9.90;;;;;;;17.07;78.46;96036.44;4975369;28;20178;-53
2021/09/19 01:41:26;;;;;;;11.70;10.70;;;;;;;17.07;78.09;96034.56;4975309;28;20463;-53
2021/09/19 01:43:54;;;;;;;11.60;10.60;;;;;;;17.06;78.02;96024.22;4974600;28;20181;-52
2021/09/19 01:46:19;;;;;;;15.60;10.23;;;;;;;17.02;78.06;96023.19;4975198;28;20687;-54
2021/09/19 01:48:45;;;;;;;11.43;10.33;;;;;;;16.99;77.75;96013.13;4975210;28;20401;-52
2021/09/19 01:51:11;;;;;;;11.23;10.13;;;;;;;16.95;78.00;96009.44;4975167;28;20174;-58
2021/09/19 01:53:38;;;;;;;11.30;10.20;;;;;;;16.94;78.01;96010.50;4974900;28;20174;-53
2021/09/19 01:56:04;;;;;;;11.57;10.57;;;;;;;16.88;78.28;96006.28;4974973;28;20457;-59
2021/09/19 01:58:30;;;;;;;13.43;11.03;;;;;;;16.84;78.21;96013.19;4974650;28;20461;-59
2021/09/19 02:01:00;;;;;;;11.03;9.90;;;;;;;16.81;78.36;96008.44;4975027;28;20959;-53
2021/09/19 02:03:26;;;;;;;13.40;10.33;;;;;;;16.79;78.69;96006.06;4974489;28;20269;-53
2021/09/19 02:05:51;;;;;;;14.07;10.53;;;;;;;16.79;78.83;96002.59;4974842;28;20457;-58
2021/09/19 02:08:17;;;;;;;16.10;10.93;;;;;;;16.77;79.00;96005.53;4974793;28;20232;-59
2021/09/19 02:10:43;;;;;;;13.63;10.00;;;;;;;16.77;78.74;96002.09;4974773;28;20178;-52
2021/09/19 02:13:08;;;;;;;11.90;9.97;;;;;;;16.75;78.80;96001.56;4974091;28;20209;-59
2021/09/19 02:15:34;;;;;;;13.63;9.97;;;;;;;16.74;78.68;95990.16;4974729;28;20202;-59
2021/09/19 02:17:59;;;;;;;10.07;9.20;;;;;;;16.66;78.85;95988.09;4974809;28;20208;-59
2021/09/19 02:20:25;;;;;;;11.70;10.60;;;;;;;16.65;78.99;95991.00;4974790;28;20648;-58
2021/09/19 02:22:51;;;;;;;10.53;9.63;;;;;;;16.63;79.08;95996.56;4974451;28;20185;-58
2021/09/19 02:25:16;;;;;;;11.30;10.30;;;;;;;16.57;79.50;95986.25;4974524;28;20469;-52
2021/09/19 02:27:42;;;;;;;11.63;10.37;;;;;;;16.58;79.29;95982.56;4974491;28;20177;-53
2021/09/19 02:30:10;;;;;;;12.93;10.70;;;;;;;16.58;79.21;95982.56;4978399;28;20204;-59
2021/09/19 02:32:37;;;;;;;12.10;9.10;;;;;;;16.54;79.25;95982.28;4978431;28;20445;-58
2021/09/19 02:35:05;;;;;;;12.90;10.23;;;;;;;16.58;78.90;95985.22;4978619;28;20955;-58
2021/09/19 02:37:30;;;;;;;11.43;10.43;;;;;;;16.60;78.88;95983.06;4978240;28;20492;-53
2021/09/19 02:39:56;;;;;;;11.60;10.60;;;;;;;16.51;78.88;95982.84;4978675;28;20480;-59
2021/09/19 02:42:21;;;;;;;11.90;9.33;;;;;;;16.51;78.73;95982.84;4977476;28;20601;-52
2021/09/19 02:44:46;;;;;;;11.20;10.10;;;;;;;16.45;78.67;95968.75;4978074;28;20201;-53
2021/09/19 02:47:12;;;;;;;11.80;10.80;;;;;;;16.46;78.57;95966.91;4978492;28;20189;-59
2021/09/19 02:49:37;;;;;;;12.47;9.37;;;;;;;16.41;78.67;95966.94;4978416;28;20167;-59
2021/09/19 02:52:03;;;;;;;11.10;10.00;;;;;;;16.39;78.73;95961.91;4978433;28;20233;-58
2021/09/19 02:54:28;;;;;;;11.73;10.47;;;;;;;16.37;78.92;95955.28;4978003;28;20224;-53
2021/09/19 02:56:54;;;;;;;12.20;10.40;;;;;;;16.35;78.59;95958.22;4978237;28;20710;-59
2021/09/19 02:59:20;;;;;;;11.93;9.37;;;;;;;16.37;78.33;95947.31;4977984;28;20680;-59
2021/09/19 03:01:45;;;;;;;11.17;9.80;;;;;;;16.32;78.42;95945.47;4978281;28;20633;-59
2021/09/19 03:04:11;;;;;;;10.47;9.47;;;;;;;16.31;78.21;95946.56;4977616;28;20177;-53
2021/09/19 03:06:37;;;;;;;15.80;11.40;;;;;;;16.28;78.27;95948.97;4978131;28;20269;-58
2021/09/19 03:09:02;;;;;;;10.83;9.93;;;;;;;16.26;77.95;95941.28;4977950;28;20449;-53
2021/09/19 03:11:28;;;;;;;11.90;10.80;;;;;;;16.22;78.11;95942.06;4977978;28;20174;-59
2021/09/19 03:13:53;;;;;;;12.50;11.40;;;;;;;16.18;77.93;95941.81;4977315;28;20174;-59
2021/09/19 03:16:19;;;;;;;11.90;10.70;;;;;;;16.13;76.78;95941.84;4977847;28;20600;-59
2021/09/19 03:18:44;;;;;;;10.30;9.30;;;;;;;16.00;76.97;95950.38;4977897;28;20233;-59
2021/09/19 03:21:10;;;;;;;11.83;10.27;;;;;;;15.90;77.47;95939.00;4977931;28;20178;-52
2021/09/19 03:23:35;;;;;;;10.10;9.30;;;;;;;15.80;77.90;95944.34;4977331;28;20170;-53
2021/09/19 03:26:00;;;;;;;9.90;9.00;;;;;;;15.69;78.59;95948.06;4977586;28;20190;-59
2021/09/19 03:28:26;;;;;;;10.90;9.80;;;;;;;15.66;79.12;95949.38;4977516;28;20177;-59
2021/09/19 03:30:51;;;;;;;10.53;9.63;;;;;;;15.68;79.11;95947.25;4977668;28;20185;-58
2021/09/19 03:33:17;;;;;;;10.07;9.07;;;;;;;15.75;78.53;95946.97;4977068;28;20220;-58
2021/09/19 03:35:42;;;;;;;9.40;8.60;;;;;;;15.75;78.04;95939.03;4977369;28;20201;-58
2021/09/19 03:38:07;;;;;;;9.27;8.37;;;;;;;15.71;78.28;95941.41;4977299;28;20206;-58
2021/09/19 03:40:33;;;;;;;9.70;8.50;;;;;;;15.66;78.51;95935.34;4976704;28;20634;-52
2021/09/19 03:42:58;;;;;;;9.70;8.90;;;;;;;15.66;78.34;95940.63;4976766;28;20212;-53
2021/09/19 03:45:24;;;;;;;9.10;8.40;;;;;;;15.62;78.15;95936.97;4977386;28;20244;-53
2021/09/19 03:47:51;;;;;;;9.67;8.80;;;;;;;15.60;78.19;95942.50;4977461;28;20202;-59
2021/09/19 03:50:16;;;;;;;10.30;9.40;;;;;;;15.38;79.17;95944.63;4977115;28;20174;-59
2021/09/19 03:52:42;;;;;;;10.30;9.40;;;;;;;15.37;79.21;95941.19;4976841;28;20428;-59
2021/09/19 03:55:08;;;;;;;8.90;8.20;;;;;;;15.47;78.80;95945.72;4977250;28;20538;-52
2021/09/19 03:57:33;;;;;;;8.67;7.97;;;;;;;15.47;78.35;95943.06;4976568;28;20194;-58
2021/09/19 03:59:58;;;;;;;10.20;9.20;;;;;;;15.46;77.60;95949.41;4977353;28;20398;-58
2021/09/19 04:02:24;;;;;;;11.03;9.23;;;;;;;15.49;77.20;95962.09;4976843;28;20182;-53
2021/09/19 04:04:49;;;;;;;9.73;8.90;;;;;;;15.35;77.83;95961.03;4976552;28;20205;-53
2021/09/19 04:07:14;;;;;;;8.80;8.00;;;;;;;15.24;78.31;95952.28;4977156;28;20176;-52
2021/09/19 04:09:40;;;;;;;10.00;9.10;;;;;;;15.08;79.43;95961.28;4976938;28;20257;-52
2021/09/19 04:12:05;;;;;;;10.10;9.10;;;;;;;15.09;79.35;95954.91;4976729;28;20224;-53
2021/09/19 04:14:31;;;;;;;10.20;8.40;;;;;;;15.17;78.98;95956.25;4976395;28;20170;-53
2021/09/19 04:16:56;;;;;;;10.53;9.53;;;;;;;15.19;78.75;95957.59;4976806;28;20259;-59
2021/09/19 04:19:21;;;;;;;9.70;8.90;;;;;;;15.19;79.04;95960.25;4977135;28;20700;-53
2021/09/19 04:21:47;;;;;;;9.93;8.97;;;;;;;15.17;78.97;95961.53;4977088;28;20170;-52
2021/09/19 04:24:13;;;;;;;9.53;8.73;;;;;;;15.17;78.56;95958.91;4976452;28;20184;-59
2021/09/19 04:26:38;;;;;;;9.10;8.20;;;;;;;15.16;78.36;95958.09;4975950;28;20190;-53
2021/09/19 04:29:03;;;;;;;10.33;9.43;;;;;;;14.93;79.79;95949.91;4976716;28;20201;-52
2021/09/19 04:31:29;;;;;;;10.37;9.37;;;;;;;14.97;79.64;95964.16;4976655;28;20532;-59
2021/09/19 04:33:54;;;;;;;8.60;7.80;;;;;;;14.98;79.47;95960.47;4976050;28;20504;-58
2021/09/19 04:36:20;;;;;;;11.17;10.17;;;;;;;14.99;78.63;95956.75;4976167;28;20197;-53
2021/09/19 04:38:45;;;;;;;10.53;9.53;;;;;;;14.99;78.36;95956.75;4976124;28;20665;-52
2021/09/19 04:41:10;;;;;;;10.50;9.60;;;;;;;14.87;79.54;95964.16;4976115;28;20170;-52
2021/09/19 04:43:36;;;;;;;10.03;9.20;;;;;;;14.80;79.72;95966.28;4975813;28;20537;-52
2021/09/19 04:46:01;;;;;;;11.40;10.30;;;;;;;14.73;80.02;95969.16;4976246;28;20189;-58
2021/09/19 04:48:26;;;;;;;10.57;9.67;;;;;;;14.58;81.29;95971.78;4976285;28;20245;-53
2021/09/19 04:50:52;;;;;;;9.73;8.80;;;;;;;14.66;81.17;95975.72;4976296;28;20638;-58
2021/09/19 04:53:17;;;;;;;9.80;8.80;;;;;;;14.77;79.92;95969.41;4974838;28;20506;-52
2021/09/19 04:55:42;;;;;;;10.27;9.37;;;;;;;14.79;79.85;95975.25;4975635;28;20218;-52
2021/09/19 04:58:08;;;;;;;9.53;8.63;;;;;;;14.80;79.57;95979.50;4976092;28;20246;-52
2021/09/19 05:00:33;;;;;;;9.87;9.00;;;;;;;14.83;79.14;95974.47;4975742;28;20178;-59
2021/09/19 05:02:59;;;;;;;10.03;8.60;;;;;;;14.77;79.20;95977.34;4975624;28;20205;-59
2021/09/19 05:05:24;;;;;;;9.80;8.80;;;;;;;14.77;79.24;95980.00;4975946;28;20197;-59
2021/09/19 05:07:49;;;;;;;9.60;8.80;;;;;;;14.81;79.09;95973.13;4976322;28;20229;-53
2021/09/19 05:10:15;;;;;;;10.33;9.43;;;;;;;14.84;78.84;95973.41;4976176;28;20177;-58
2021/09/19 05:12:40;;;;;;;9.40;8.60;;;;;;;14.84;78.51;95978.69;4975436;28;20166;-58
2021/09/19 05:15:07;;;;;;;10.03;9.13;;;;;;;14.85;77.79;95977.66;4975327;28;20190;-52
2021/09/19 05:17:32;;;;;;;9.70;8.90;;;;;;;14.79;78.61;95983.19;4975411;28;20197;-57
2021/09/19 05:19:58;;;;;;;9.60;8.70;;;;;;;14.72;78.10;95983.44;4975172;28;20779;-53
2021/09/19 05:22:23;;;;;;;9.90;8.90;;;;;;;14.66;78.92;95989.75;4975732;28;20166;-53
2021/09/19 05:24:48;;;;;;;10.87;9.13;;;;;;;14.69;78.86;95988.47;4975172;28;20193;-59
2021/09/19 05:27:14;;;;;;;10.07;9.10;;;;;;;14.68;79.31;95989.50;4975497;28;20193;-59
2021/09/19 05:29:39;;;;;;;9.60;8.70;;;;;;;14.70;78.97;95998.78;4975574;28;20253;-53
2021/09/19 05:32:05;;;;;;;9.80;8.80;;;;;;;14.65;79.70;95995.31;4975456;28;20625;-53
2021/09/19 05:34:31;;;;;;;10.97;9.97;;;;;;;14.68;79.50;95997.44;4974716;28;20178;-60
2021/09/19 05:37:00;;;;;;;10.33;9.33;;;;;;;14.64;79.69;95991.09;4975166;28;20214;-53
2021/09/19 05:39:25;;;;;;;11.10;10.10;;;;;;;14.65;80.16;95997.97;4974035;28;20800;-53
2021/09/19 05:41:51;;;;;;;10.57;9.53;;;;;;;14.67;80.10;96001.13;4975350;28;20413;-60
2021/09/19 05:44:17;;;;;;;10.03;9.20;;;;;;;14.69;79.69;96001.69;4973572;28;20178;-53
2021/09/19 05:46:43;;;;;;;9.47;8.57;;;;;;;14.71;79.96;96007.50;4975140;28;20429;-59
2021/09/19 05:49:08;;;;;;;9.97;9.03;;;;;;;14.65;80.25;96000.59;4974756;28;20237;-53
2021/09/19 05:51:33;;;;;;;10.47;9.47;;;;;;;14.71;80.16;96000.34;4975084;28;20198;-59
2021/09/19 05:53:59;;;;;;;9.83;8.80;;;;;;;14.75;79.78;96004.06;4974799;28;20170;-59
2021/09/19 05:56:24;;;;;;;11.37;8.80;;;;;;;14.77;79.80;95999.31;4975023;28;20587;-59
2021/09/19 05:58:50;;;;;;;9.77;8.80;;;;;;;14.82;79.90;95996.69;4975119;28;20174;-59
2021/09/19 06:01:15;;;;;;;9.33;8.50;;;;;;;14.83;79.91;95989.53;4974817;28;20185;-59
2021/09/19 06:03:41;;;;;;;10.07;9.07;;;;;;;14.75;80.56;95998.78;4973802;28;20180;-59
2021/09/19 06:06:07;;;;;;;9.67;8.77;;;;;;;14.85;80.42;95992.72;4974919;28;20260;-59
2021/09/19 06:08:32;;;;;;;9.97;9.07;;;;;;;14.82;81.12;95998.56;4974833;28;20190;-59
2021/09/19 06:10:58;;;;;;;10.13;9.10;;;;;;;14.88;81.02;95992.19;4974992;28;20633;-53
2021/09/19 06:13:23;;;;;;;11.30;9.07;;;;;;;14.90;81.09;95987.44;4974562;28;20605;-59
2021/09/19 06:15:48;;;;;;;9.70;8.93;;;;;;;14.94;81.27;95981.38;4974626;28;20197;-59
2021/09/19 06:18:14;;;;;;;9.43;8.63;;;;;;;14.96;81.46;95981.13;4974615;28;20265;-59
2021/09/19 06:20:40;;;;;;;9.63;8.73;;;;;;;14.98;81.76;95977.13;4974845;28;20249;-53
2021/09/19 06:23:06;;;;;;;10.33;9.33;;;;;;;15.01;81.86;95981.91;4974724;28;20276;-59
2021/09/19 06:25:31;;;;;;;13.53;9.73;;;;;;;15.10;81.62;95985.63;4974707;28;20515;-53
2021/09/19 06:27:57;;;;;;;9.63;8.73;;;;;;;15.04;82.11;95983.22;4974717;28;20178;-53
2021/09/19 06:30:22;;;;;;;9.73;8.73;;;;;;;15.04;82.57;95986.69;4974715;28;20202;-53
2021/09/19 06:32:47;;;;;;;9.70;8.90;;;;;;;14.96;83.40;95983.75;4973836;28;20174;-59
2021/09/19 06:35:13;;;;;;;10.23;9.23;;;;;;;14.98;83.51;95982.41;4974257;28;20405;-59
2021/09/19 06:37:38;;;;;;;12.00;9.90;;;;;;;14.94;84.54;95978.72;4974363;28;20704;-59
2021/09/19 06:40:04;;;;;;;11.53;10.23;;;;;;;15.02;84.33;95977.44;4973520;28;20178;-59
2021/09/19 06:42:30;;;;;;;11.23;10.23;;;;;;;15.04;84.35;95978.75;4973928;28;20269;-59
2021/09/19 06:44:55;;;;;;;11.17;10.27;;;;;;;15.24;83.73;95977.97;4974069;28;20433;-58
2021/09/19 06:47:20;;;;;;;10.87;9.80;;;;;;;15.30;83.67;95983.00;4974334;28;20514;-53
2021/09/19 06:49:46;;;;;;;9.60;8.70;;;;;;;15.39;83.70;95985.91;4974634;28;20174;-59
2021/09/19 06:52:11;;;;;;;10.30;8.87;;;;;;;15.40;84.06;95976.91;4974380;28;20328;-59
2021/09/19 06:54:37;;;;;;;9.60;8.70;;;;;;;15.46;84.16;95981.19;4973986;28;20170;-53
2021/09/19 06:57:02;;;;;;;10.63;9.73;;;;;;;15.50;84.94;95982.25;4974050;28;20205;-53
2021/09/19 06:59:28;;;;;;;9.77;8.87;;;;;;;15.55;85.10;95989.38;4974363;28;20174;-53
2021/09/19 07:01:53;;;;;;;9.17;8.37;;;;;;;15.64;85.19;95980.63;4974487;28;20750;-53
2021/09/19 07:04:18;;;;;;;10.33;8.20;;;;;;;15.71;85.43;95983.03;4973627;28;20188;-56
2021/09/19 07:06:45;;;;;;;10.27;9.37;;;;;;;15.75;85.68;95979.56;4974330;28;20204;-59
2021/09/19 07:09:11;;;;;;;9.00;8.20;;;;;;;15.80;86.19;95984.09;4974424;28;20590;-53
2021/09/19 07:11:36;;;;;;;10.60;9.03;;;;;;;15.90;86.04;95978.75;4974374;28;20500;-59
2021/09/19 07:14:02;;;;;;;9.13;8.23;;;;;;;15.96;86.14;95986.41;4973828;28;20178;-59
2021/09/19 07:16:27;;;;;;;11.23;9.20;;;;;;;15.98;86.35;95986.94;4976612;28;20259;-59
2021/09/19 07:18:53;;;;;;;9.70;8.90;;;;;;;16.04;86.37;95991.19;4977850;28;20421;-58
2021/09/19 07:21:18;;;;;;;9.63;8.83;;;;;;;16.15;86.35;95992.75;4977838;28;20192;-53
2021/09/19 07:23:44;;;;;;;11.13;8.70;;;;;;;16.20;86.23;95990.06;4977488;28;20174;-59
2021/09/19 07:26:09;;;;;;;9.67;8.77;;;;;;;16.21;86.62;95999.63;4977631;28;20202;-53
2021/09/19 07:28:35;;;;;;;8.30;7.50;;;;;;;16.26;86.03;95999.63;4977817;28;20181;-53
2021/09/19 07:31:01;;;;;;;10.33;8.70;;;;;;;16.30;86.12;96003.31;4977511;28;20196;-59
2021/09/19 07:33:26;;;;;;;10.00;9.00;;;;;;;16.42;85.79;96017.06;4977142;28;20270;-59
2021/09/19 07:35:52;;;;;;;8.73;7.93;;;;;;;16.49;85.60;96014.13;4976726;28;20206;-53
2021/09/19 07:38:19;;;;;;;9.20;7.93;;;;;;;16.55;85.07;96002.44;4977503;28;20186;-59
2021/09/19 07:40:46;;;;;;;8.97;8.17;;;;;;;16.57;85.07;96000.31;4977525;28;20272;-53
2021/09/19 07:43:12;;;;;;;8.73;8.03;;;;;;;16.61;85.11;96009.34;4976959;28;20417;-59
2021/09/19 07:45:37;;;;;;;8.63;7.83;;;;;;;16.71;85.14;96005.81;4977294;28;20448;-53
2021/09/19 07:48:09;;;;;;;9.90;8.97;;;;;;;16.74;85.20;96008.72;4977489;28;20166;-53
2021/09/19 07:50:34;;;;;;;8.30;7.60;;;;;;;16.79;85.22;96011.38;4977218;28;20559;-53
2021/09/19 07:53:00;;;;;;;9.17;8.27;;;;;;;16.81;85.34;96019.84;4977209;28;20418;-53
2021/09/19 07:55:28;;;;;;;9.87;8.37;;;;;;;16.88;85.18;96023.00;4977147;28;20205;-59
2021/09/19 07:57:53;;;;;;;9.90;9.00;;;;;;;17.01;84.69;96030.34;4977132;28;20665;-59
2021/09/19 08:00:19;;;;;;;10.00;9.17;;;;;;;17.09;84.13;96042.25;4977672;28;20417;-59
2021/09/19 08:02:44;;;;;;;9.97;9.17;;;;;;;17.09;84.00;96050.22;4976832;28;20182;-59
2021/09/19 08:05:10;;;;;;;8.73;7.93;;;;;;;17.07;83.41;96050.50;4976514;28;20672;-59
2021/09/19 08:07:36;;;;;;;9.53;8.73;;;;;;;17.06;82.73;96051.59;4976960;28;20185;-59
2021/09/19 08:10:01;;;;;;;10.50;8.67;;;;;;;17.12;82.67;96045.16;4977053;28;20430;-53
2021/09/19 08:12:27;;;;;;;9.20;8.40;;;;;;;17.22;81.77;96039.00;4976972;28;20173;-53
2021/09/19 08:14:52;;;;;;;8.40;7.70;;;;;;;17.31;81.23;96040.00;4976291;28;20201;-53
2021/09/19 08:17:17;;;;;;;7.93;7.33;;;;;;;17.34;81.42;96037.59;4976839;28;20248;-53
2021/09/19 08:19:43;;;;;;;9.90;9.00;;;;;;;17.36;81.00;96043.41;4976681;28;20171;-53
2021/09/19 08:22:08;;;;;;;9.47;8.67;;;;;;;17.34;80.45;96029.63;4976726;28;20177;-59
2021/09/19 08:24:34;;;;;;;9.73;8.83;;;;;;;17.45;79.19;96036.47;4976054;28;20606;-53
2021/09/19 08:26:59;;;;;;;9.70;8.70;;;;;;;17.34;79.13;96029.63;4976338;28;20178;-59
2021/09/19 08:29:24;;;;;;;9.87;8.97;;;;;;;17.40;78.54;96028.53;4976689;28;20633;-53
2021/09/19 08:31:50;;;;;;;9.80;8.90;;;;;;;17.51;78.43;96034.59;4976964;28;20225;-59
2021/09/19 08:34:15;;;;;;;8.97;8.17;;;;;;;17.53;79.12;96027.13;4976267;28;20174;-53
2021/09/19 08:36:41;;;;;;;7.93;7.20;;;;;;;17.65;79.41;96024.09;4974407;28;20202;-54
2021/09/19 08:39:08;;;;;;;9.30;8.47;;;;;;;17.73;79.37;96026.19;4976209;28;20182;-53
2021/09/19 08:41:34;;;;;;;8.90;8.00;;;;;;;17.80;79.29;96034.63;4976461;28;20181;-59
2021/09/19 08:44:00;;;;;;;8.63;7.73;;;;;;;17.93;79.30;96028.66;4975819;28;20418;-60
2021/09/19 08:46:26;;;;;;;8.37;7.23;;;;;;;18.03;79.50;96032.03;4976037;28;20424;-59
2021/09/19 08:48:51;;;;;;;11.10;10.00;;;;;;;18.07;77.48;96029.59;4976095;28;20629;-53
2021/09/19 08:51:18;;;;;;;10.03;9.20;;;;;;;18.00;75.50;96035.25;4976046;28;20257;-53
2021/09/19 08:53:43;;;;;;;9.67;8.87;;;;;;;17.99;76.11;96041.63;4975549;28;20264;-59
2021/09/19 08:56:09;;;;;;;9.43;8.60;;;;;;;18.10;76.51;96042.34;4975742;28;20457;-59
2021/09/19 08:58:37;;;;;;;8.20;7.50;;;;;;;18.10;77.53;96040.47;4976287;28;20522;-53
2021/09/19 09:01:03;;;;;;;9.10;8.30;;;;;;;18.23;77.54;96037.16;4975772;28;20536;-59
2021/09/19 09:03:30;;;;;;;7.00;6.47;;;;;;;18.37;77.90;96040.72;4975533;28;20501;-59
2021/09/19 09:05:57;;;;;;;8.33;7.57;;;;;;;18.48;77.37;96040.66;4975762;28;20931;-53
2021/09/19 09:08:24;;;;;;;8.37;7.70;;;;;;;18.56;77.21;96040.81;4975495;28;20903;-53
2021/09/19 09:10:51;;;;;;;7.10;6.50;;;;;;;18.65;79.06;96046.31;4975282;28;20901;-59
2021/09/19 09:13:35;;;;;;;7.27;6.67;;;;;;;18.76;79.61;96048.56;4975394;28;20454;-59
2021/09/19 09:16:11;;;;;;;8.57;7.87;;;;;;;18.88;77.75;96038.28;4974493;28;20445;-53
2021/09/19 09:18:38;;;;;;;7.50;6.80;;;;;;;18.93;78.72;96040.88;4975640;28;20404;-60
2021/09/19 09:21:09;;;;;;;8.80;8.10;;;;;;;18.98;78.01;96046.16;4975551;28;20422;-59
2021/09/19 09:23:36;;;;;;;7.03;6.43;;;;;;;19.04;77.88;96041.56;4974959;28;20449;-53
2021/09/19 09:26:19;;;;;;;8.60;7.80;;;;;;;19.08;75.76;96035.38;4975335;28;20518;-60
2021/09/19 09:28:48;;;;;;;8.37;7.20;;;;;;;19.19;76.35;96052.81;4975364;28;20425;-60
2021/09/19 09:31:26;;;;;;;7.63;7.00;;;;;;;19.29;76.37;96049.22;4975394;28;20579;-53
2021/09/19 09:33:56;;;;;;;8.67;7.87;;;;;;;19.40;75.93;96050.69;4974832;28;20772;-54
2021/09/19 09:36:52;;;;;;;7.83;7.07;;;;;;;19.41;74.88;96050.41;4974587;28;20487;-59
2021/09/19 09:39:41;;;;;;;8.57;7.87;;;;;;;19.49;75.35;96055.06;4971417;28;20453;-59
2021/09/19 09:42:18;;;;;;;8.13;7.50;;;;;;;19.63;75.02;96054.34;4973805;28;20747;-54
2021/09/19 09:45:01;;;;;;;6.80;6.10;;;;;;;19.75;75.20;96050.16;4974715;28;20486;-53
2021/09/19 09:47:29;;;;;;;6.70;6.10;;;;;;;19.87;75.13;96053.16;4974320;28;20436;-54
2021/09/19 09:49:58;;;;;;;10.77;7.40;;;;;;;19.96;74.61;96056.75;4974925;28;20963;-60
2021/09/19 09:52:26;;;;;;;8.90;8.17;;;;;;;20.00;73.19;96057.72;4974762;28;20886;-53
2021/09/19 09:54:56;;;;;;;9.10;8.30;;;;;;;19.94;71.21;96058.91;4974262;28;20456;-59
2021/09/19 09:57:37;;;;;;;7.60;6.93;;;;;;;20.11;71.80;96050.38;4974527;28;20956;-53
2021/09/19 10:00:15;;;;;;;7.00;6.50;;;;;;;20.20;73.82;96035.31;4974991;28;20445;-59
2021/09/19 10:02:46;;;;;;;8.70;7.90;;;;;;;20.34;74.11;96038.78;4973896;28;20430;-59
2021/09/19 10:05:13;;;;;;;9.43;8.50;;;;;;;20.52;73.76;96037.09;4974575;28;20479;-53
2021/09/19 10:07:41;;;;;;;6.77;6.17;;;;;;;20.63;73.04;96036.63;4974662;28;20789;-53
2021/09/19 10:10:10;;;;;;;6.00;5.60;;;;;;;20.74;72.74;96035.34;4974687;28;20444;-60
2021/09/19 10:12:36;;;;;;;7.47;6.80;;;;;;;20.88;72.70;96035.31;4974409;28;20422;-57
2021/09/19 10:15:05;;;;;;;5.83;5.33;;;;;;;20.97;71.79;96025.50;4973176;28;20806;-60
2021/09/19 10:17:31;;;;;;;8.90;8.20;;;;;;;21.01;71.25;96021.97;4974097;28;20198;-59
2021/09/19 10:19:57;;;;;;;7.00;6.50;;;;;;;21.08;71.47;96026.91;4974362;28;20896;-54
2021/09/19 10:23:01;;;;;;;7.90;7.23;;;;;;;21.12;68.53;96025.22;4974393;28;20618;-60
2021/09/19 10:25:29;;;;;;;7.37;6.77;;;;;;;21.20;70.25;96024.50;4974411;28;20232;-60
2021/09/19 10:28:16;;;;;;;7.43;6.80;;;;;;;21.23;69.22;96026.59;4974471;28;20444;-54
2021/09/19 10:31:09;;;;;;;7.87;7.17;;;;;;;21.36;69.13;96020.41;4974383;28;20397;-54
2021/09/19 10:33:55;;;;;;;8.53;7.73;;;;;;;21.42;69.37;96014.66;4973111;28;20520;-60
2021/09/19 10:36:29;;;;;;;8.17;7.43;;;;;;;21.58;69.10;96016.97;4974018;28;20454;-60
2021/09/19 10:39:18;;;;;;;8.83;8.03;;;;;;;21.49;65.65;96011.53;4974307;28;20417;-53
2021/09/19 10:42:07;;;;;;;7.40;6.80;;;;;;;21.57;66.73;96010.84;4974192;28;20516;-60
2021/09/19 10:44:51;;;;;;;8.00;7.33;;;;;;;21.66;68.17;96010.88;4973680;28;20424;-54
2021/09/19 10:47:22;;;;;;;9.53;7.50;;;;;;;21.72;67.44;96009.69;4974373;28;20484;-60
2021/09/19 10:49:48;;;;;;;5.97;5.37;;;;;;;21.81;67.98;96003.31;4974101;28;20413;-60
2021/09/19 10:52:18;;;;;;;8.07;7.27;;;;;;;21.94;67.81;96007.78;4978064;28;20409;-53
2021/09/19 10:54:52;;;;;;;7.30;6.60;;;;;;;21.99;66.24;96007.69;4977709;28;20233;-60
2021/09/19 10:57:22;;;;;;;6.67;6.07;;;;;;;21.92;64.07;96001.94;4977515;28;20457;-53
2021/09/19 11:00:12;;;;;;;6.80;6.20;;;;;;;22.03;65.02;96005.97;4978083;28;20468;-60
2021/09/19 11:02:41;;;;;;;6.63;6.13;;;;;;;22.05;66.23;95998.41;4977995;28;20409;-59
2021/09/19 11:05:27;;;;;;;6.43;5.93;;;;;;;22.02;65.29;95991.00;4977926;28;20502;-54
2021/09/19 11:08:04;;;;;;;7.53;6.93;;;;;;;22.07;64.84;95992.75;4977687;28;20401;-53
2021/09/19 11:10:30;;;;;;;6.90;6.30;;;;;;;22.10;64.92;95998.28;4977086;28;20421;-60
2021/09/19 11:12:56;;;;;;;6.47;5.97;;;;;;;22.10;64.09;95998.28;4977516;28;20413;-53
2021/09/19 11:15:24;;;;;;;8.97;7.17;;;;;;;22.10;63.84;95989.47;4977746;28;20986;-60
2021/09/19 11:17:51;;;;;;;6.53;6.03;;;;;;;22.09;63.55;95991.34;4977385;28;20325;-54
2021/09/19 11:20:22;;;;;;;8.70;6.63;;;;;;;22.10;63.91;95984.91;4977671;28;20472;-54
2021/09/19 11:22:53;;;;;;;11.47;7.10;;;;;;;22.13;63.39;95984.31;4977340;28;20504;-54
2021/09/19 11:25:21;;;;;;;10.53;7.53;;;;;;;22.11;64.01;95986.50;4977117;28;20453;-54
2021/09/19 11:27:48;;;;;;;8.27;7.47;;;;;;;22.03;63.90;95987.22;4977563;28;20414;-60